sensor_id;sensor_type;location;lat;lon;timestamp;temperature;humidity
20364;DHT22;10340;53.664;9.908;2023-02-16T00:00:28;2.40;99.90
20364;DHT22;10340;53.664;9.908;2023-02-16T00:02:56;2.30;99.90
20364;DHT22;10340;53.664;9.908;2023-02-16T00:05:25;2.30;99.90
20364;DHT22;10340;53.664;9.908;2023-02-16T00:07:53;2.40;99.90
20364;DHT22;10340;53.664;9.908;2023-02-16T00:10:20;2.40;99.90
20364;DHT22;10340;53.664;9.908;2023-02-16T00:12:48;2.40;99.90
20364;DHT22;10340;53.664;9.908;2023-02-16T00:15:34;2.40;99.90
20364;DHT22;10340;53.664;9.908;2023-02-16T00:18:02;2.50;99.90
20364;DHT22;10340;53.664;9.908;2023-02-16T00:20:30;2.50;99.90
20364;DHT22;10340;53.664;9.908;2023-02-16T00:22:57;2.50;99.90
20364;DHT22;10340;53.664;9.908;2023-02-16T00:25:24;2.60;99.90
20364;DHT22;10340;53.664;9.908;2023-02-16T00:27:52;2.50;99.90
20364;DHT22;10340;53.664;9.908;2023-02-16T00:30:20;2.50;99.90
20364;DHT22;10340;53.664;9.908;2023-02-16T00:32:49;2.50;99.90
20364;DHT22;10340;53.664;9.908;2023-02-16T00:35:16;2.60;99.90
20364;DHT22;10340;53.664;9.908;2023-02-16T00:37:44;2.50;99.90
20364;DHT22;10340;53.664;9.908;2023-02-16T00:40:13;2.60;99.90
20364;DHT22;10340;53.664;9.908;2023-02-16T00:42:40;2.60;99.90
20364;DHT22;10340;53.664;9.908;2023-02-16T00:45:14;2.70;99.90
20364;DHT22;10340;53.664;9.908;2023-02-16T00:47:43;2.80;99.90
20364;DHT22;10340;53.664;9.908;2023-02-16T00:50:16;2.80;99.90
20364;DHT22;10340;53.664;9.908;2023-02-16T00:52:44;2.90;99.90
20364;DHT22;10340;53.664;9.908;2023-02-16T00:55:14;2.90;99.90
20364;DHT22;10340;53.664;9.908;2023-02-16T00:57:44;2.90;99.90
20364;DHT22;10340;53.664;9.908;2023-02-16T01:00:17;3.00;99.90
20364;DHT22;10340;53.664;9.908;2023-02-16T01:02:47;3.00;99.90
20364;DHT22;10340;53.664;9.908;2023-02-16T01:05:15;3.00;99.90
20364;DHT22;10340;53.664;9.908;2023-02-16T01:07:43;3.00;99.90
20364;DHT22;10340;53.664;9.908;2023-02-16T01:10:28;3.00;99.90
20364;DHT22;10340;53.664;9.908;2023-02-16T01:13:13;3.00;99.90
20364;DHT22;10340;53.664;9.908;2023-02-16T01:15:41;2.90;99.90
20364;DHT22;10340;53.664;9.908;2023-02-16T01:18:09;2.90;99.90
20364;DHT22;10340;53.664;9.908;2023-02-16T01:20:38;2.90;99.90
20364;DHT22;10340;53.664;9.908;2023-02-16T01:23:05;2.90;99.90
20364;DHT22;10340;53.664;9.908;2023-02-16T01:25:31;2.80;99.90
20364;DHT22;10340;53.664;9.908;2023-02-16T01:27:59;2.80;99.90
20364;DHT22;10340;53.664;9.908;2023-02-16T01:30:26;2.80;99.90
20364;DHT22;10340;53.664;9.908;2023-02-16T01:32:53;2.80;99.90
20364;DHT22;10340;53.664;9.908;2023-02-16T01:35:22;2.80;99.90
20364;DHT22;10340;53.664;9.908;2023-02-16T01:37:51;2.90;99.90
20364;DHT22;10340;53.664;9.908;2023-02-16T01:40:26;2.90;99.90
20364;DHT22;10340;53.664;9.908;2023-02-16T01:42:59;3.00;99.90
20364;DHT22;10340;53.664;9.908;2023-02-16T01:45:32;3.20;99.90
20364;DHT22;10340;53.664;9.908;2023-02-16T01:48:03;3.30;99.90
20364;DHT22;10340;53.664;9.908;2023-02-16T01:50:41;3.30;99.90
20364;DHT22;10340;53.664;9.908;2023-02-16T01:53:17;3.40;99.90
20364;DHT22;10340;53.664;9.908;2023-02-16T01:55:50;3.50;99.90
20364;DHT22;10340;53.664;9.908;2023-02-16T01:58:24;3.60;99.90
20364;DHT22;10340;53.664;9.908;2023-02-16T02:03:56;3.60;99.90
20364;DHT22;10340;53.664;9.908;2023-02-16T02:06:41;3.70;99.90
20364;DHT22;10340;53.664;9.908;2023-02-16T02:09:13;3.80;99.90
20364;DHT22;10340;53.664;9.908;2023-02-16T02:11:45;3.80;99.90
20364;DHT22;10340;53.664;9.908;2023-02-16T02:14:18;3.80;99.90
20364;DHT22;10340;53.664;9.908;2023-02-16T02:16:53;3.80;99.90
20364;DHT22;10340;53.664;9.908;2023-02-16T02:19:20;3.90;99.90
20364;DHT22;10340;53.664;9.908;2023-02-16T02:22:09;3.90;99.90
20364;DHT22;10340;53.664;9.908;2023-02-16T02:25:18;3.90;99.90
20364;DHT22;10340;53.664;9.908;2023-02-16T02:27:53;3.90;99.90
20364;DHT22;10340;53.664;9.908;2023-02-16T02:30:35;4.00;99.90
20364;DHT22;10340;53.664;9.908;2023-02-16T02:33:19;4.00;99.90
20364;DHT22;10340;53.664;9.908;2023-02-16T02:36:02;4.00;99.90
20364;DHT22;10340;53.664;9.908;2023-02-16T02:38:38;4.10;99.90
20364;DHT22;10340;53.664;9.908;2023-02-16T02:41:13;4.00;99.90
20364;DHT22;10340;53.664;9.908;2023-02-16T02:43:51;4.10;99.90
20364;DHT22;10340;53.664;9.908;2023-02-16T02:46:23;4.10;99.90
20364;DHT22;10340;53.664;9.908;2023-02-16T02:48:51;4.10;99.90
20364;DHT22;10340;53.664;9.908;2023-02-16T02:51:18;4.10;99.90
20364;DHT22;10340;53.664;9.908;2023-02-16T02:53:56;4.10;99.90
20364;DHT22;10340;53.664;9.908;2023-02-16T02:56:38;4.10;99.90
20364;DHT22;10340;53.664;9.908;2023-02-16T02:59:26;4.10;99.90
20364;DHT22;10340;53.664;9.908;2023-02-16T03:02:14;4.10;99.90
20364;DHT22;10340;53.664;9.908;2023-02-16T03:04:43;4.10;99.90
20364;DHT22;10340;53.664;9.908;2023-02-16T03:07:13;4.10;99.90
20364;DHT22;10340;53.664;9.908;2023-02-16T03:09:40;4.10;99.90
20364;DHT22;10340;53.664;9.908;2023-02-16T03:12:08;4.10;99.90
20364;DHT22;10340;53.664;9.908;2023-02-16T03:14:57;4.20;99.90
20364;DHT22;10340;53.664;9.908;2023-02-16T03:17:30;4.20;99.90
20364;DHT22;10340;53.664;9.908;2023-02-16T03:20:16;4.20;99.90
20364;DHT22;10340;53.664;9.908;2023-02-16T03:23:02;4.10;99.90
20364;DHT22;10340;53.664;9.908;2023-02-16T03:25:47;4.20;99.90
20364;DHT22;10340;53.664;9.908;2023-02-16T03:28:34;4.10;99.90
20364;DHT22;10340;53.664;9.908;2023-02-16T03:31:24;4.10;99.90
20364;DHT22;10340;53.664;9.908;2023-02-16T03:33:53;4.00;99.90
20364;DHT22;10340;53.664;9.908;2023-02-16T03:36:21;4.00;99.90
20364;DHT22;10340;53.664;9.908;2023-02-16T03:38:49;4.00;99.90
20364;DHT22;10340;53.664;9.908;2023-02-16T03:41:16;4.00;99.90
20364;DHT22;10340;53.664;9.908;2023-02-16T03:43:43;4.00;99.90
20364;DHT22;10340;53.664;9.908;2023-02-16T03:46:10;4.00;99.90
20364;DHT22;10340;53.664;9.908;2023-02-16T03:48:39;3.90;99.90
20364;DHT22;10340;53.664;9.908;2023-02-16T03:51:06;3.90;99.90
20364;DHT22;10340;53.664;9.908;2023-02-16T03:53:32;3.90;99.90
20364;DHT22;10340;53.664;9.908;2023-02-16T03:55:59;3.90;99.90
20364;DHT22;10340;53.664;9.908;2023-02-16T03:58:27;3.90;99.90
20364;DHT22;10340;53.664;9.908;2023-02-16T04:00:54;3.90;99.90
20364;DHT22;10340;53.664;9.908;2023-02-16T04:03:23;3.80;99.90
20364;DHT22;10340;53.664;9.908;2023-02-16T04:05:52;3.80;99.90
20364;DHT22;10340;53.664;9.908;2023-02-16T04:08:18;3.80;99.90
20364;DHT22;10340;53.664;9.908;2023-02-16T04:10:45;3.80;99.90
20364;DHT22;10340;53.664;9.908;2023-02-16T04:13:13;3.70;99.90
20364;DHT22;10340;53.664;9.908;2023-02-16T04:15:39;3.70;99.90
20364;DHT22;10340;53.664;9.908;2023-02-16T04:18:07;3.70;99.90
20364;DHT22;10340;53.664;9.908;2023-02-16T04:20:34;3.70;99.90
20364;DHT22;10340;53.664;9.908;2023-02-16T04:23:03;3.60;99.90
20364;DHT22;10340;53.664;9.908;2023-02-16T04:25:30;3.60;99.90
20364;DHT22;10340;53.664;9.908;2023-02-16T04:27:57;3.60;99.90
20364;DHT22;10340;53.664;9.908;2023-02-16T04:30:27;3.60;99.90
20364;DHT22;10340;53.664;9.908;2023-02-16T04:32:55;3.60;99.90
20364;DHT22;10340;53.664;9.908;2023-02-16T04:35:23;3.60;99.90
20364;DHT22;10340;53.664;9.908;2023-02-16T04:37:50;3.60;99.90
20364;DHT22;10340;53.664;9.908;2023-02-16T04:40:19;3.60;99.90
20364;DHT22;10340;53.664;9.908;2023-02-16T04:42:46;3.50;99.90
20364;DHT22;10340;53.664;9.908;2023-02-16T04:45:13;3.50;99.90
20364;DHT22;10340;53.664;9.908;2023-02-16T04:47:41;3.50;99.90
20364;DHT22;10340;53.664;9.908;2023-02-16T04:50:08;3.50;99.90
20364;DHT22;10340;53.664;9.908;2023-02-16T04:52:36;3.50;99.90
20364;DHT22;10340;53.664;9.908;2023-02-16T04:55:03;3.60;99.90
20364;DHT22;10340;53.664;9.908;2023-02-16T04:57:33;3.60;99.90
20364;DHT22;10340;53.664;9.908;2023-02-16T05:00:00;3.60;99.90
20364;DHT22;10340;53.664;9.908;2023-02-16T05:02:27;3.60;99.90
20364;DHT22;10340;53.664;9.908;2023-02-16T05:04:54;3.70;99.90
20364;DHT22;10340;53.664;9.908;2023-02-16T05:07:21;3.60;99.90
20364;DHT22;10340;53.664;9.908;2023-02-16T05:09:48;3.70;99.90
20364;DHT22;10340;53.664;9.908;2023-02-16T05:12:15;3.70;99.90
20364;DHT22;10340;53.664;9.908;2023-02-16T05:15:00;3.70;99.90
20364;DHT22;10340;53.664;9.908;2023-02-16T05:17:27;3.70;99.90
20364;DHT22;10340;53.664;9.908;2023-02-16T05:19:55;3.70;99.90
20364;DHT22;10340;53.664;9.908;2023-02-16T05:22:23;3.70;99.90
20364;DHT22;10340;53.664;9.908;2023-02-16T05:24:50;3.70;99.90
20364;DHT22;10340;53.664;9.908;2023-02-16T05:27:19;3.70;99.90
20364;DHT22;10340;53.664;9.908;2023-02-16T05:29:47;3.80;99.90
20364;DHT22;10340;53.664;9.908;2023-02-16T05:32:15;3.70;99.90
20364;DHT22;10340;53.664;9.908;2023-02-16T05:34:42;3.70;99.90
20364;DHT22;10340;53.664;9.908;2023-02-16T05:37:10;3.70;99.90
20364;DHT22;10340;53.664;9.908;2023-02-16T05:39:37;3.80;99.90
20364;DHT22;10340;53.664;9.908;2023-02-16T05:42:04;3.70;99.90
20364;DHT22;10340;53.664;9.908;2023-02-16T05:44:31;3.80;99.90
20364;DHT22;10340;53.664;9.908;2023-02-16T05:46:58;3.80;99.90
20364;DHT22;10340;53.664;9.908;2023-02-16T05:49:26;3.80;99.90
20364;DHT22;10340;53.664;9.908;2023-02-16T05:51:53;3.80;99.90
20364;DHT22;10340;53.664;9.908;2023-02-16T05:54:20;3.80;99.90
20364;DHT22;10340;53.664;9.908;2023-02-16T05:56:50;3.80;99.90
20364;DHT22;10340;53.664;9.908;2023-02-16T05:59:17;3.80;99.90
20364;DHT22;10340;53.664;9.908;2023-02-16T06:01:45;3.80;99.90
20364;DHT22;10340;53.664;9.908;2023-02-16T06:04:12;3.90;99.90
20364;DHT22;10340;53.664;9.908;2023-02-16T06:06:41;3.90;99.90
20364;DHT22;10340;53.664;9.908;2023-02-16T06:09:09;3.90;99.90
20364;DHT22;10340;53.664;9.908;2023-02-16T06:11:36;3.80;99.90
20364;DHT22;10340;53.664;9.908;2023-02-16T06:14:06;3.90;99.90
20364;DHT22;10340;53.664;9.908;2023-02-16T06:16:34;3.90;99.90
20364;DHT22;10340;53.664;9.908;2023-02-16T06:19:01;3.90;99.90
20364;DHT22;10340;53.664;9.908;2023-02-16T06:21:28;4.00;99.90
20364;DHT22;10340;53.664;9.908;2023-02-16T06:23:57;3.90;99.90
20364;DHT22;10340;53.664;9.908;2023-02-16T06:26:26;3.90;99.90
20364;DHT22;10340;53.664;9.908;2023-02-16T06:28:54;3.90;99.90
20364;DHT22;10340;53.664;9.908;2023-02-16T06:31:21;3.90;99.90
20364;DHT22;10340;53.664;9.908;2023-02-16T06:33:49;4.00;99.90
20364;DHT22;10340;53.664;9.908;2023-02-16T06:36:16;4.00;99.90
20364;DHT22;10340;53.664;9.908;2023-02-16T06:38:44;4.00;99.90
20364;DHT22;10340;53.664;9.908;2023-02-16T06:41:12;4.00;99.90
20364;DHT22;10340;53.664;9.908;2023-02-16T06:43:56;4.00;99.90
20364;DHT22;10340;53.664;9.908;2023-02-16T06:46:23;4.00;99.90
20364;DHT22;10340;53.664;9.908;2023-02-16T06:48:50;4.00;99.90
20364;DHT22;10340;53.664;9.908;2023-02-16T06:51:17;4.00;99.90
20364;DHT22;10340;53.664;9.908;2023-02-16T06:53:44;4.00;99.90
20364;DHT22;10340;53.664;9.908;2023-02-16T06:56:13;4.00;99.90
20364;DHT22;10340;53.664;9.908;2023-02-16T06:58:40;4.10;99.90
20364;DHT22;10340;53.664;9.908;2023-02-16T07:01:07;4.10;99.90
20364;DHT22;10340;53.664;9.908;2023-02-16T07:03:34;4.10;99.90
20364;DHT22;10340;53.664;9.908;2023-02-16T07:06:01;4.10;99.90
20364;DHT22;10340;53.664;9.908;2023-02-16T07:08:28;4.20;99.90
20364;DHT22;10340;53.664;9.908;2023-02-16T07:10:55;4.20;99.90
20364;DHT22;10340;53.664;9.908;2023-02-16T07:13:23;4.20;99.90
20364;DHT22;10340;53.664;9.908;2023-02-16T07:15:50;4.20;99.90
20364;DHT22;10340;53.664;9.908;2023-02-16T07:18:18;4.20;99.90
20364;DHT22;10340;53.664;9.908;2023-02-16T07:20:46;4.20;99.90
20364;DHT22;10340;53.664;9.908;2023-02-16T07:23:13;4.30;99.90
20364;DHT22;10340;53.664;9.908;2023-02-16T07:25:40;4.30;99.90
20364;DHT22;10340;53.664;9.908;2023-02-16T07:28:07;4.40;99.90
20364;DHT22;10340;53.664;9.908;2023-02-16T07:30:35;4.40;99.90
20364;DHT22;10340;53.664;9.908;2023-02-16T07:33:03;4.40;99.90
20364;DHT22;10340;53.664;9.908;2023-02-16T07:35:31;4.50;99.90
20364;DHT22;10340;53.664;9.908;2023-02-16T07:37:58;4.50;99.90
20364;DHT22;10340;53.664;9.908;2023-02-16T07:40:25;4.60;99.90
20364;DHT22;10340;53.664;9.908;2023-02-16T07:42:52;4.60;99.90
20364;DHT22;10340;53.664;9.908;2023-02-16T07:45:20;4.70;99.90
20364;DHT22;10340;53.664;9.908;2023-02-16T07:47:48;4.70;99.90
20364;DHT22;10340;53.664;9.908;2023-02-16T07:50:15;4.70;99.90
20364;DHT22;10340;53.664;9.908;2023-02-16T07:52:42;4.80;99.90
20364;DHT22;10340;53.664;9.908;2023-02-16T07:55:09;4.80;99.90
20364;DHT22;10340;53.664;9.908;2023-02-16T07:57:38;4.90;99.90
20364;DHT22;10340;53.664;9.908;2023-02-16T08:00:06;4.90;99.90
20364;DHT22;10340;53.664;9.908;2023-02-16T08:02:33;5.00;99.90
20364;DHT22;10340;53.664;9.908;2023-02-16T08:05:02;5.00;99.90
20364;DHT22;10340;53.664;9.908;2023-02-16T08:07:30;5.00;99.90
20364;DHT22;10340;53.664;9.908;2023-02-16T08:09:57;5.10;99.90
20364;DHT22;10340;53.664;9.908;2023-02-16T08:12:25;5.20;99.90
20364;DHT22;10340;53.664;9.908;2023-02-16T08:14:52;5.20;99.90
20364;DHT22;10340;53.664;9.908;2023-02-16T08:17:19;5.30;99.90
20364;DHT22;10340;53.664;9.908;2023-02-16T08:19:46;5.30;99.90
20364;DHT22;10340;53.664;9.908;2023-02-16T08:22:16;5.40;99.90
20364;DHT22;10340;53.664;9.908;2023-02-16T08:24:43;5.40;99.90
20364;DHT22;10340;53.664;9.908;2023-02-16T08:27:10;5.50;99.90
20364;DHT22;10340;53.664;9.908;2023-02-16T08:29:37;5.60;99.90
20364;DHT22;10340;53.664;9.908;2023-02-16T08:32:06;5.60;99.90
20364;DHT22;10340;53.664;9.908;2023-02-16T08:34:35;5.70;99.90
20364;DHT22;10340;53.664;9.908;2023-02-16T08:37:03;5.70;99.90
20364;DHT22;10340;53.664;9.908;2023-02-16T08:39:32;5.80;99.90
20364;DHT22;10340;53.664;9.908;2023-02-16T08:42:00;5.80;99.90
20364;DHT22;10340;53.664;9.908;2023-02-16T08:44:28;5.90;99.90
20364;DHT22;10340;53.664;9.908;2023-02-16T08:46:57;6.00;99.90
20364;DHT22;10340;53.664;9.908;2023-02-16T08:49:25;6.00;99.90
20364;DHT22;10340;53.664;9.908;2023-02-16T08:51:54;6.00;99.90
20364;DHT22;10340;53.664;9.908;2023-02-16T08:54:24;6.10;99.90
20364;DHT22;10340;53.664;9.908;2023-02-16T08:56:54;6.20;99.90
20364;DHT22;10340;53.664;9.908;2023-02-16T08:59:22;6.20;99.90
20364;DHT22;10340;53.664;9.908;2023-02-16T09:01:50;6.20;99.90
20364;DHT22;10340;53.664;9.908;2023-02-16T09:04:18;6.20;99.90
20364;DHT22;10340;53.664;9.908;2023-02-16T09:06:46;6.20;99.90
20364;DHT22;10340;53.664;9.908;2023-02-16T09:09:14;6.20;99.90
20364;DHT22;10340;53.664;9.908;2023-02-16T09:11:41;6.20;99.90
20364;DHT22;10340;53.664;9.908;2023-02-16T09:14:09;6.30;99.90
20364;DHT22;10340;53.664;9.908;2023-02-16T09:16:37;6.30;99.90
20364;DHT22;10340;53.664;9.908;2023-02-16T09:19:10;6.30;99.90
20364;DHT22;10340;53.664;9.908;2023-02-16T09:21:39;6.30;99.90
20364;DHT22;10340;53.664;9.908;2023-02-16T09:24:07;6.40;99.90
20364;DHT22;10340;53.664;9.908;2023-02-16T09:26:37;6.50;99.90
20364;DHT22;10340;53.664;9.908;2023-02-16T09:29:08;6.50;99.90
20364;DHT22;10340;53.664;9.908;2023-02-16T09:31:37;6.60;99.90
20364;DHT22;10340;53.664;9.908;2023-02-16T09:34:06;6.60;99.90
20364;DHT22;10340;53.664;9.908;2023-02-16T09:36:33;6.70;99.90
20364;DHT22;10340;53.664;9.908;2023-02-16T09:39:00;6.80;99.90
20364;DHT22;10340;53.664;9.908;2023-02-16T09:41:39;6.80;99.90
20364;DHT22;10340;53.664;9.908;2023-02-16T09:44:17;6.90;99.90
20364;DHT22;10340;53.664;9.908;2023-02-16T09:46:48;7.00;99.90
20364;DHT22;10340;53.664;9.908;2023-02-16T09:49:22;7.00;99.90
20364;DHT22;10340;53.664;9.908;2023-02-16T09:52:00;7.10;99.90
20364;DHT22;10340;53.664;9.908;2023-02-16T09:54:34;7.20;99.90
20364;DHT22;10340;53.664;9.908;2023-02-16T09:57:06;7.40;99.90
20364;DHT22;10340;53.664;9.908;2023-02-16T09:59:45;7.50;99.90
20364;DHT22;10340;53.664;9.908;2023-02-16T10:02:41;7.60;99.90
20364;DHT22;10340;53.664;9.908;2023-02-16T10:05:18;7.60;99.90
20364;DHT22;10340;53.664;9.908;2023-02-16T10:07:55;7.70;99.90
20364;DHT22;10340;53.664;9.908;2023-02-16T10:10:30;7.70;99.90
20364;DHT22;10340;53.664;9.908;2023-02-16T10:13:01;7.60;99.90
20364;DHT22;10340;53.664;9.908;2023-02-16T10:15:33;7.60;99.90
20364;DHT22;10340;53.664;9.908;2023-02-16T10:18:04;7.60;99.90
20364;DHT22;10340;53.664;9.908;2023-02-16T10:20:35;7.50;99.90
20364;DHT22;10340;53.664;9.908;2023-02-16T10:23:07;7.50;99.90
20364;DHT22;10340;53.664;9.908;2023-02-16T10:25:40;7.50;99.90
20364;DHT22;10340;53.664;9.908;2023-02-16T10:28:16;7.50;99.90
20364;DHT22;10340;53.664;9.908;2023-02-16T10:30:48;7.50;99.90
20364;DHT22;10340;53.664;9.908;2023-02-16T10:33:34;7.50;99.90
20364;DHT22;10340;53.664;9.908;2023-02-16T10:36:14;7.50;99.90
20364;DHT22;10340;53.664;9.908;2023-02-16T10:38:47;7.50;99.90
20364;DHT22;10340;53.664;9.908;2023-02-16T10:41:26;7.50;99.90
20364;DHT22;10340;53.664;9.908;2023-02-16T10:44:00;7.50;99.90
20364;DHT22;10340;53.664;9.908;2023-02-16T10:46:33;7.60;99.90
20364;DHT22;10340;53.664;9.908;2023-02-16T10:49:02;7.60;99.90
20364;DHT22;10340;53.664;9.908;2023-02-16T10:51:32;7.70;99.90
20364;DHT22;10340;53.664;9.908;2023-02-16T10:54:06;7.80;99.90
20364;DHT22;10340;53.664;9.908;2023-02-16T10:56:48;7.80;99.90
20364;DHT22;10340;53.664;9.908;2023-02-16T10:59:20;7.90;99.90
20364;DHT22;10340;53.664;9.908;2023-02-16T11:01:50;8.00;99.90
20364;DHT22;10340;53.664;9.908;2023-02-16T11:04:39;8.10;99.90
20364;DHT22;10340;53.664;9.908;2023-02-16T11:07:08;8.10;99.90
20364;DHT22;10340;53.664;9.908;2023-02-16T11:09:37;8.20;99.90
20364;DHT22;10340;53.664;9.908;2023-02-16T11:12:14;8.20;99.90
20364;DHT22;10340;53.664;9.908;2023-02-16T11:14:48;8.30;99.90
20364;DHT22;10340;53.664;9.908;2023-02-16T11:17:19;8.30;99.90
20364;DHT22;10340;53.664;9.908;2023-02-16T11:19:51;8.40;99.90
20364;DHT22;10340;53.664;9.908;2023-02-16T11:22:30;8.40;99.90
20364;DHT22;10340;53.664;9.908;2023-02-16T11:25:19;8.40;99.90
20364;DHT22;10340;53.664;9.908;2023-02-16T11:27:52;8.50;99.90
20364;DHT22;10340;53.664;9.908;2023-02-16T11:30:28;8.60;99.90
20364;DHT22;10340;53.664;9.908;2023-02-16T11:33:00;8.70;99.90
20364;DHT22;10340;53.664;9.908;2023-02-16T11:35:29;8.80;99.90
20364;DHT22;10340;53.664;9.908;2023-02-16T11:37:57;8.80;99.90
20364;DHT22;10340;53.664;9.908;2023-02-16T11:40:27;8.80;99.90
20364;DHT22;10340;53.664;9.908;2023-02-16T11:42:55;8.70;99.90
20364;DHT22;10340;53.664;9.908;2023-02-16T11:45:26;8.70;99.90
20364;DHT22;10340;53.664;9.908;2023-02-16T11:47:55;8.70;99.90
20364;DHT22;10340;53.664;9.908;2023-02-16T11:50:26;8.70;99.90
20364;DHT22;10340;53.664;9.908;2023-02-16T11:52:56;8.70;99.90
20364;DHT22;10340;53.664;9.908;2023-02-16T11:55:27;8.60;99.90
20364;DHT22;10340;53.664;9.908;2023-02-16T11:58:16;8.70;99.90
20364;DHT22;10340;53.664;9.908;2023-02-16T12:00:51;8.70;99.90
20364;DHT22;10340;53.664;9.908;2023-02-16T12:06:37;8.80;99.90
20364;DHT22;10340;53.664;9.908;2023-02-16T12:09:12;8.80;99.90
20364;DHT22;10340;53.664;9.908;2023-02-16T12:11:52;8.80;99.90
20364;DHT22;10340;53.664;9.908;2023-02-16T12:14:37;8.80;99.90
20364;DHT22;10340;53.664;9.908;2023-02-16T12:17:18;8.80;99.90
20364;DHT22;10340;53.664;9.908;2023-02-16T12:19:48;8.80;99.90
20364;DHT22;10340;53.664;9.908;2023-02-16T12:22:27;8.70;99.90
20364;DHT22;10340;53.664;9.908;2023-02-16T12:25:05;8.70;99.90
20364;DHT22;10340;53.664;9.908;2023-02-16T12:27:41;8.70;99.90
20364;DHT22;10340;53.664;9.908;2023-02-16T12:30:21;8.60;99.90
20364;DHT22;10340;53.664;9.908;2023-02-16T12:33:01;8.60;99.90
20364;DHT22;10340;53.664;9.908;2023-02-16T12:38:19;8.50;99.90
20364;DHT22;10340;53.664;9.908;2023-02-16T12:41:02;8.50;99.90
20364;DHT22;10340;53.664;9.908;2023-02-16T12:43:34;8.50;99.90
20364;DHT22;10340;53.664;9.908;2023-02-16T12:46:08;8.50;99.90
20364;DHT22;10340;53.664;9.908;2023-02-16T12:48:41;8.50;99.90
20364;DHT22;10340;53.664;9.908;2023-02-16T12:51:16;8.50;99.90
20364;DHT22;10340;53.664;9.908;2023-02-16T12:53:51;8.40;99.90
20364;DHT22;10340;53.664;9.908;2023-02-16T12:56:27;8.40;99.90
20364;DHT22;10340;53.664;9.908;2023-02-16T12:59:06;8.30;99.90
20364;DHT22;10340;53.664;9.908;2023-02-16T13:01:39;8.30;99.90
20364;DHT22;10340;53.664;9.908;2023-02-16T13:04:15;8.30;99.90
20364;DHT22;10340;53.664;9.908;2023-02-16T13:06:47;8.30;99.90
20364;DHT22;10340;53.664;9.908;2023-02-16T13:09:26;8.30;99.90
20364;DHT22;10340;53.664;9.908;2023-02-16T13:12:06;8.40;99.90
20364;DHT22;10340;53.664;9.908;2023-02-16T13:14:37;8.40;99.90
20364;DHT22;10340;53.664;9.908;2023-02-16T13:17:11;8.50;99.90
20364;DHT22;10340;53.664;9.908;2023-02-16T13:19:40;8.50;99.90
20364;DHT22;10340;53.664;9.908;2023-02-16T13:22:23;8.60;99.90
20364;DHT22;10340;53.664;9.908;2023-02-16T13:27:53;8.60;99.90
20364;DHT22;10340;53.664;9.908;2023-02-16T13:30:54;8.60;99.90
20364;DHT22;10340;53.664;9.908;2023-02-16T13:33:35;8.50;99.90
20364;DHT22;10340;53.664;9.908;2023-02-16T13:36:20;8.50;99.90
20364;DHT22;10340;53.664;9.908;2023-02-16T13:39:29;8.50;99.90
20364;DHT22;10340;53.664;9.908;2023-02-16T13:42:27;8.60;99.90
20364;DHT22;10340;53.664;9.908;2023-02-16T13:44:58;8.60;99.90
20364;DHT22;10340;53.664;9.908;2023-02-16T13:47:29;8.50;99.90
20364;DHT22;10340;53.664;9.908;2023-02-16T13:49:58;8.50;99.90
20364;DHT22;10340;53.664;9.908;2023-02-16T13:52:30;8.50;99.90
20364;DHT22;10340;53.664;9.908;2023-02-16T13:54:59;8.40;99.90
20364;DHT22;10340;53.664;9.908;2023-02-16T13:58:02;8.50;99.90
20364;DHT22;10340;53.664;9.908;2023-02-16T14:00:34;8.40;99.90
20364;DHT22;10340;53.664;9.908;2023-02-16T14:03:10;8.50;99.90
20364;DHT22;10340;53.664;9.908;2023-02-16T14:05:41;8.40;99.90
20364;DHT22;10340;53.664;9.908;2023-02-16T14:08:18;8.40;99.90
20364;DHT22;10340;53.664;9.908;2023-02-16T14:10:58;8.40;99.90
20364;DHT22;10340;53.664;9.908;2023-02-16T14:13:29;8.40;99.90
20364;DHT22;10340;53.664;9.908;2023-02-16T14:15:58;8.50;99.90
20364;DHT22;10340;53.664;9.908;2023-02-16T14:18:31;8.50;99.90
20364;DHT22;10340;53.664;9.908;2023-02-16T14:21:02;8.50;99.90
20364;DHT22;10340;53.664;9.908;2023-02-16T14:23:32;8.50;99.90
20364;DHT22;10340;53.664;9.908;2023-02-16T14:26:01;8.50;99.90
20364;DHT22;10340;53.664;9.908;2023-02-16T14:29:08;8.50;99.90
20364;DHT22;10340;53.664;9.908;2023-02-16T14:31:43;8.50;99.90
20364;DHT22;10340;53.664;9.908;2023-02-16T14:34:16;8.50;99.90
20364;DHT22;10340;53.664;9.908;2023-02-16T14:39:49;8.50;99.90
20364;DHT22;10340;53.664;9.908;2023-02-16T14:42:25;8.40;99.90
20364;DHT22;10340;53.664;9.908;2023-02-16T14:45:16;8.40;99.90
20364;DHT22;10340;53.664;9.908;2023-02-16T14:47:57;8.40;99.90
20364;DHT22;10340;53.664;9.908;2023-02-16T14:50:37;8.40;99.90
20364;DHT22;10340;53.664;9.908;2023-02-16T14:56:23;8.40;99.90
20364;DHT22;10340;53.664;9.908;2023-02-16T14:58:56;8.40;99.90
20364;DHT22;10340;53.664;9.908;2023-02-16T15:01:26;8.40;99.90
20364;DHT22;10340;53.664;9.908;2023-02-16T15:03:55;8.40;99.90
20364;DHT22;10340;53.664;9.908;2023-02-16T15:06:29;8.30;99.90
20364;DHT22;10340;53.664;9.908;2023-02-16T15:08:59;8.30;99.90
20364;DHT22;10340;53.664;9.908;2023-02-16T15:11:31;8.30;99.90
20364;DHT22;10340;53.664;9.908;2023-02-16T15:14:08;8.30;99.90
20364;DHT22;10340;53.664;9.908;2023-02-16T15:16:39;8.30;99.90
20364;DHT22;10340;53.664;9.908;2023-02-16T15:19:10;8.30;99.90
20364;DHT22;10340;53.664;9.908;2023-02-16T15:21:37;8.30;99.90
20364;DHT22;10340;53.664;9.908;2023-02-16T15:24:16;8.30;99.90
20364;DHT22;10340;53.664;9.908;2023-02-16T15:26:53;8.30;99.90
20364;DHT22;10340;53.664;9.908;2023-02-16T15:29:23;8.30;99.90
20364;DHT22;10340;53.664;9.908;2023-02-16T15:31:53;8.30;99.90
20364;DHT22;10340;53.664;9.908;2023-02-16T15:34:29;8.30;99.90
20364;DHT22;10340;53.664;9.908;2023-02-16T15:36:58;8.30;99.90
20364;DHT22;10340;53.664;9.908;2023-02-16T15:39:27;8.30;99.90
20364;DHT22;10340;53.664;9.908;2023-02-16T15:42:10;8.20;99.90
20364;DHT22;10340;53.664;9.908;2023-02-16T15:44:42;8.20;99.90
20364;DHT22;10340;53.664;9.908;2023-02-16T15:47:13;8.20;99.90
20364;DHT22;10340;53.664;9.908;2023-02-16T15:49:41;8.10;99.90
20364;DHT22;10340;53.664;9.908;2023-02-16T15:52:11;8.10;99.90
20364;DHT22;10340;53.664;9.908;2023-02-16T15:54:39;8.10;99.90
20364;DHT22;10340;53.664;9.908;2023-02-16T15:57:11;8.10;99.90
20364;DHT22;10340;53.664;9.908;2023-02-16T15:59:44;8.10;99.90
20364;DHT22;10340;53.664;9.908;2023-02-16T16:02:16;8.10;99.90
20364;DHT22;10340;53.664;9.908;2023-02-16T16:04:46;8.10;99.90
20364;DHT22;10340;53.664;9.908;2023-02-16T16:07:17;8.00;99.90
20364;DHT22;10340;53.664;9.908;2023-02-16T16:09:45;8.00;99.90
20364;DHT22;10340;53.664;9.908;2023-02-16T16:12:15;8.00;99.90
20364;DHT22;10340;53.664;9.908;2023-02-16T16:14:48;8.00;99.90
20364;DHT22;10340;53.664;9.908;2023-02-16T16:17:19;8.00;99.90
20364;DHT22;10340;53.664;9.908;2023-02-16T16:19:48;8.00;99.90
20364;DHT22;10340;53.664;9.908;2023-02-16T16:22:29;7.90;99.90
20364;DHT22;10340;53.664;9.908;2023-02-16T16:24:58;7.90;99.90
20364;DHT22;10340;53.664;9.908;2023-02-16T16:27:31;7.90;99.90
20364;DHT22;10340;53.664;9.908;2023-02-16T16:30:25;7.90;99.90
20364;DHT22;10340;53.664;9.908;2023-02-16T16:33:01;7.80;99.90